sensor_id;sensor_type;location;lat;lon;timestamp;pressure;altitude;pressure_sealevel;temperature;humidity
37238;BME280;23129;49.662;8.448;2022-07-24T00:00:05;100935.81;;;22.64;49.93
37238;BME280;23129;49.662;8.448;2022-07-24T00:02:40;100932.63;;;22.59;50.26
37238;BME280;23129;49.662;8.448;2022-07-24T00:05:10;100930.25;;;22.54;50.56
37238;BME280;23129;49.662;8.448;2022-07-24T00:07:38;100934.97;;;22.51;50.59
37238;BME280;23129;49.662;8.448;2022-07-24T00:10:09;100932.63;;;22.46;50.47
37238;BME280;23129;49.662;8.448;2022-07-24T00:12:38;100931.13;;;22.42;50.84
37238;BME280;23129;49.662;8.448;2022-07-24T00:15:08;100931.34;;;22.39;50.79
37238;BME280;23129;49.662;8.448;2022-07-24T00:17:36;100937.97;;;22.33;50.97
37238;BME280;23129;49.662;8.448;2022-07-24T00:20:08;100938.19;;;22.30;51.24
37238;BME280;23129;49.662;8.448;2022-07-24T00:22:37;100930.50;;;22.26;51.22
37238;BME280;23129;49.662;8.448;2022-07-24T00:25:08;100928.97;;;22.22;51.23
37238;BME280;23129;49.662;8.448;2022-07-24T00:27:36;100937.34;;;22.17;51.43
37238;BME280;23129;49.662;8.448;2022-07-24T00:30:06;100936.63;;;22.14;51.50
37238;BME280;23129;49.662;8.448;2022-07-24T00:32:35;100935.13;;;22.09;51.66
37238;BME280;23129;49.662;8.448;2022-07-24T00:35:04;100935.47;;;22.05;51.94
37238;BME280;23129;49.662;8.448;2022-07-24T00:37:33;100943.03;;;21.98;52.19
37238;BME280;23129;49.662;8.448;2022-07-24T00:40:01;100937.88;;;21.95;52.11
37238;BME280;23129;49.662;8.448;2022-07-24T00:42:31;100944.50;;;21.89;52.19
37238;BME280;23129;49.662;8.448;2022-07-24T00:44:59;100934.22;;;21.83;52.47
37238;BME280;23129;49.662;8.448;2022-07-24T00:47:28;100932.72;;;21.79;52.49
37238;BME280;23129;49.662;8.448;2022-07-24T00:49:56;100929.50;;;21.74;52.63
37238;BME280;23129;49.662;8.448;2022-07-24T00:52:25;100929.72;;;21.71;52.88
37238;BME280;23129;49.662;8.448;2022-07-24T00:54:54;100935.25;;;21.68;52.98
37238;BME280;23129;49.662;8.448;2022-07-24T00:57:23;100939.94;;;21.64;52.98
37238;BME280;23129;49.662;8.448;2022-07-24T00:59:53;100925.94;;;21.61;53.33
37238;BME280;23129;49.662;8.448;2022-07-24T01:02:21;100926.16;;;21.58;53.23
37238;BME280;23129;49.662;8.448;2022-07-24T01:04:50;100924.53;;;21.55;53.32
37238;BME280;23129;49.662;8.448;2022-07-24T01:07:19;100929.13;;;21.53;53.44
37238;BME280;23129;49.662;8.448;2022-07-24T01:09:48;100927.50;;;21.51;53.50
37238;BME280;23129;49.662;8.448;2022-07-24T01:12:17;100924.94;;;21.49;53.64
37238;BME280;23129;49.662;8.448;2022-07-24T01:14:45;100917.22;;;21.45;53.75
37238;BME280;23129;49.662;8.448;2022-07-24T01:17:15;100919.16;;;21.42;53.86
37238;BME280;23129;49.662;8.448;2022-07-24T01:19:44;100921.25;;;21.37;53.99
37238;BME280;23129;49.662;8.448;2022-07-24T01:22:14;100908.19;;;21.33;54.26
37238;BME280;23129;49.662;8.448;2022-07-24T01:24:42;100919.94;;;21.30;54.23
37238;BME280;23129;49.662;8.448;2022-07-24T01:27:11;100921.84;;;21.28;54.22
37238;BME280;23129;49.662;8.448;2022-07-24T01:29:39;100923.75;;;21.26;54.38
37238;BME280;23129;49.662;8.448;2022-07-24T01:32:07;100924.78;;;21.24;54.46
37238;BME280;23129;49.662;8.448;2022-07-24T01:34:36;100925.09;;;21.19;54.77
37238;BME280;23129;49.662;8.448;2022-07-24T01:37:04;100925.19;;;21.17;54.70
37238;BME280;23129;49.662;8.448;2022-07-24T01:39:34;100933.31;;;21.16;54.75
37238;BME280;23129;49.662;8.448;2022-07-24T01:42:03;100933.50;;;21.13;54.89
37238;BME280;23129;49.662;8.448;2022-07-24T01:44:31;100929.22;;;21.10;54.96
37238;BME280;23129;49.662;8.448;2022-07-24T01:46:59;100923.97;;;21.09;54.90
37238;BME280;23129;49.662;8.448;2022-07-24T01:49:28;100930.25;;;21.08;55.04
37238;BME280;23129;49.662;8.448;2022-07-24T01:51:56;100932.38;;;21.03;55.09
37238;BME280;23129;49.662;8.448;2022-07-24T01:54:24;100933.31;;;21.02;55.33
37238;BME280;23129;49.662;8.448;2022-07-24T01:56:54;100933.53;;;20.98;55.28
37238;BME280;23129;49.662;8.448;2022-07-24T01:59:24;100933.72;;;20.95;55.40
37238;BME280;23129;49.662;8.448;2022-07-24T02:01:52;100932.22;;;20.91;55.70
37238;BME280;23129;49.662;8.448;2022-07-24T02:04:21;100931.44;;;20.89;55.72
37238;BME280;23129;49.662;8.448;2022-07-24T02:06:49;100937.75;;;20.88;55.77
37238;BME280;23129;49.662;8.448;2022-07-24T02:09:18;100929.94;;;20.85;55.74
37238;BME280;23129;49.662;8.448;2022-07-24T02:11:46;100931.84;;;20.83;56.02
37238;BME280;23129;49.662;8.448;2022-07-24T02:14:16;100929.34;;;20.80;55.99
37238;BME280;23129;49.662;8.448;2022-07-24T02:16:44;100932.09;;;20.79;56.38
37238;BME280;23129;49.662;8.448;2022-07-24T02:19:12;100929.63;;;20.75;56.25
37238;BME280;23129;49.662;8.448;2022-07-24T02:21:41;100931.56;;;20.73;56.20
37238;BME280;23129;49.662;8.448;2022-07-24T02:24:09;100938.78;;;20.71;56.64
37238;BME280;23129;49.662;8.448;2022-07-24T02:26:38;100928.19;;;20.70;56.44
37238;BME280;23129;49.662;8.448;2022-07-24T02:29:06;100934.69;;;20.66;56.84
37238;BME280;23129;49.662;8.448;2022-07-24T02:31:36;100925.19;;;20.62;56.73
37238;BME280;23129;49.662;8.448;2022-07-24T02:34:04;100936.03;;;20.59;57.08
37238;BME280;23129;49.662;8.448;2022-07-24T02:36:33;100934.41;;;20.56;56.96
37238;BME280;23129;49.662;8.448;2022-07-24T02:39:01;100931.97;;;20.51;57.21
37238;BME280;23129;49.662;8.448;2022-07-24T02:41:31;100937.50;;;20.48;57.48
37238;BME280;23129;49.662;8.448;2022-07-24T02:43:59;100940.47;;;20.44;57.32
37238;BME280;23129;49.662;8.448;2022-07-24T02:46:28;100941.50;;;20.41;57.52
37238;BME280;23129;49.662;8.448;2022-07-24T02:48:57;100939.88;;;20.39;57.78
37238;BME280;23129;49.662;8.448;2022-07-24T02:51:26;100937.41;;;20.36;57.85
37238;BME280;23129;49.662;8.448;2022-07-24T02:53:54;100932.94;;;20.36;57.99
37238;BME280;23129;49.662;8.448;2022-07-24T02:56:22;100940.91;;;20.36;58.11
37238;BME280;23129;49.662;8.448;2022-07-24T02:58:51;100941.09;;;20.33;57.92
37238;BME280;23129;49.662;8.448;2022-07-24T03:01:19;100945.78;;;20.29;58.30
37238;BME280;23129;49.662;8.448;2022-07-24T03:03:48;100945.97;;;20.26;58.24
37238;BME280;23129;49.662;8.448;2022-07-24T03:06:18;100944.31;;;20.24;58.34
37238;BME280;23129;49.662;8.448;2022-07-24T03:08:46;100946.22;;;20.22;58.53
37238;BME280;23129;49.662;8.448;2022-07-24T03:11:15;100944.69;;;20.18;58.92
37238;BME280;23129;49.662;8.448;2022-07-24T03:13:43;100949.44;;;20.13;58.89
37238;BME280;23129;49.662;8.448;2022-07-24T03:16:12;100939.06;;;20.08;59.38
37238;BME280;23129;49.662;8.448;2022-07-24T03:18:40;100934.00;;;20.03;59.58
37238;BME280;23129;49.662;8.448;2022-07-24T03:21:13;100941.31;;;20.00;59.53
37238;BME280;23129;49.662;8.448;2022-07-24T03:24:03;100947.78;;;19.96;59.71
37238;BME280;23129;49.662;8.448;2022-07-24T03:26:32;100955.09;;;19.92;60.01
37238;BME280;23129;49.662;8.448;2022-07-24T03:29:00;100948.22;;;19.88;59.76
37238;BME280;23129;49.662;8.448;2022-07-24T03:31:29;100950.13;;;19.86;60.00
37238;BME280;23129;49.662;8.448;2022-07-24T03:33:57;100947.56;;;19.84;60.27
37238;BME280;23129;49.662;8.448;2022-07-24T03:36:26;100944.97;;;19.83;60.29
37238;BME280;23129;49.662;8.448;2022-07-24T03:38:54;100954.88;;;19.81;60.32
37238;BME280;23129;49.662;8.448;2022-07-24T03:41:24;100955.81;;;19.80;60.60
37238;BME280;23129;49.662;8.448;2022-07-24T03:43:52;100959.41;;;19.79;60.73
37238;BME280;23129;49.662;8.448;2022-07-24T03:46:20;100963.03;;;19.78;60.59
37238;BME280;23129;49.662;8.448;2022-07-24T03:48:49;100956.88;;;19.77;60.55
37238;BME280;23129;49.662;8.448;2022-07-24T03:51:17;100962.25;;;19.76;60.63
37238;BME280;23129;49.662;8.448;2022-07-24T03:53:46;100959.59;;;19.76;60.65
37238;BME280;23129;49.662;8.448;2022-07-24T03:56:15;100956.16;;;19.74;61.04
37238;BME280;23129;49.662;8.448;2022-07-24T03:58:45;100960.56;;;19.75;60.82
37238;BME280;23129;49.662;8.448;2022-07-24T04:01:13;100962.25;;;19.76;60.76
37238;BME280;23129;49.662;8.448;2022-07-24T04:03:42;100968.38;;;19.78;61.07
37238;BME280;23129;49.662;8.448;2022-07-24T04:06:11;100969.22;;;19.78;60.81
37238;BME280;23129;49.662;8.448;2022-07-24T04:08:39;100959.25;;;19.82;61.16
37238;BME280;23129;49.662;8.448;2022-07-24T04:11:08;100963.59;;;19.83;61.26
37238;BME280;23129;49.662;8.448;2022-07-24T04:13:36;100965.41;;;19.82;61.24
37238;BME280;23129;49.662;8.448;2022-07-24T04:16:11;100964.56;;;19.82;61.24
37238;BME280;23129;49.662;8.448;2022-07-24T04:18:39;100963.72;;;19.81;61.00
37238;BME280;23129;49.662;8.448;2022-07-24T04:21:09;100970.75;;;19.82;61.25
37238;BME280;23129;49.662;8.448;2022-07-24T04:23:38;100968.19;;;19.81;61.36
37238;BME280;23129;49.662;8.448;2022-07-24T04:26:07;100971.69;;;19.81;61.26
37238;BME280;23129;49.662;8.448;2022-07-24T04:28:35;100968.19;;;19.81;61.29
37238;BME280;23129;49.662;8.448;2022-07-24T04:31:04;100973.50;;;19.81;61.40
37238;BME280;23129;49.662;8.448;2022-07-24T04:33:34;100962.75;;;19.82;61.56
37238;BME280;23129;49.662;8.448;2022-07-24T04:36:04;100971.59;;;19.83;61.65
37238;BME280;23129;49.662;8.448;2022-07-24T04:38:33;100969.72;;;19.85;61.42
37238;BME280;23129;49.662;8.448;2022-07-24T04:41:02;100965.16;;;19.87;61.48
37238;BME280;23129;49.662;8.448;2022-07-24T04:43:31;100962.41;;;19.89;61.78
37238;BME280;23129;49.662;8.448;2022-07-24T04:46:01;100964.03;;;19.91;61.79
37238;BME280;23129;49.662;8.448;2022-07-24T04:48:29;100958.69;;;19.91;61.69
37238;BME280;23129;49.662;8.448;2022-07-24T04:50:59;100956.81;;;19.93;61.73
37238;BME280;23129;49.662;8.448;2022-07-24T04:53:27;100963.84;;;19.94;61.70
37238;BME280;23129;49.662;8.448;2022-07-24T04:55:57;100962.03;;;19.95;61.88
37238;BME280;23129;49.662;8.448;2022-07-24T04:58:26;100961.00;;;19.97;61.89
37238;BME280;23129;49.662;8.448;2022-07-24T05:00:55;100968.81;;;20.00;61.79
37238;BME280;23129;49.662;8.448;2022-07-24T05:03:23;100975.88;;;20.01;62.03
37238;BME280;23129;49.662;8.448;2022-07-24T05:05:52;100967.78;;;20.03;62.03
37238;BME280;23129;49.662;8.448;2022-07-24T05:08:22;100967.59;;;20.06;61.71
37238;BME280;23129;49.662;8.448;2022-07-24T05:10:50;100972.75;;;20.09;62.01
37238;BME280;23129;49.662;8.448;2022-07-24T05:13:18;100964.69;;;20.11;62.01
37238;BME280;23129;49.662;8.448;2022-07-24T05:15:47;100967.22;;;20.12;61.87
37238;BME280;23129;49.662;8.448;2022-07-24T05:18:15;100974.09;;;20.16;61.97
37238;BME280;23129;49.662;8.448;2022-07-24T05:20:43;100980.19;;;20.18;62.10
37238;BME280;23129;49.662;8.448;2022-07-24T05:23:12;100977.44;;;20.20;61.84
37238;BME280;23129;49.662;8.448;2022-07-24T05:25:41;100981.75;;;20.22;61.80
37238;BME280;23129;49.662;8.448;2022-07-24T05:28:16;100977.06;;;20.26;61.98
37238;BME280;23129;49.662;8.448;2022-07-24T05:30:44;100979.56;;;20.29;61.75
37238;BME280;23129;49.662;8.448;2022-07-24T05:33:13;100986.41;;;20.33;61.71
37238;BME280;23129;49.662;8.448;2022-07-24T05:35:41;100982.63;;;20.37;61.87
37238;BME280;23129;49.662;8.448;2022-07-24T05:38:15;100980.50;;;20.42;61.71
37238;BME280;23129;49.662;8.448;2022-07-24T05:40:45;100981.09;;;20.47;61.59
37238;BME280;23129;49.662;8.448;2022-07-24T05:43:13;100976.41;;;20.52;61.43
37238;BME280;23129;49.662;8.448;2022-07-24T05:45:43;100976.09;;;20.57;61.61
37238;BME280;23129;49.662;8.448;2022-07-24T05:48:12;100977.72;;;20.60;61.29
37238;BME280;23129;49.662;8.448;2022-07-24T05:50:40;100976.69;;;20.62;61.56
37238;BME280;23129;49.662;8.448;2022-07-24T05:53:08;100981.72;;;20.67;61.45
37238;BME280;23129;49.662;8.448;2022-07-24T05:55:37;100983.44;;;20.68;61.62
37238;BME280;23129;49.662;8.448;2022-07-24T05:58:06;100976.97;;;20.72;61.40
37238;BME280;23129;49.662;8.448;2022-07-24T06:00:35;100982.09;;;20.75;61.64
37238;BME280;23129;49.662;8.448;2022-07-24T06:03:03;100984.50;;;20.80;61.35
37238;BME280;23129;49.662;8.448;2022-07-24T06:05:32;100977.06;;;20.85;61.61
37238;BME280;23129;49.662;8.448;2022-07-24T06:08:00;100984.78;;;20.89;61.21
37238;BME280;23129;49.662;8.448;2022-07-24T06:10:29;100988.97;;;20.93;61.39
37238;BME280;23129;49.662;8.448;2022-07-24T06:12:59;100999.25;;;21.00;61.30
37238;BME280;23129;49.662;8.448;2022-07-24T06:15:29;100994.47;;;21.05;61.15
37238;BME280;23129;49.662;8.448;2022-07-24T06:18:01;100995.06;;;21.10;61.03
37238;BME280;23129;49.662;8.448;2022-07-24T06:20:29;101000.97;;;21.15;61.06
37238;BME280;23129;49.662;8.448;2022-07-24T06:22:58;100996.94;;;21.22;60.96
37238;BME280;23129;49.662;8.448;2022-07-24T06:25:26;100993.97;;;21.27;60.86
37238;BME280;23129;49.662;8.448;2022-07-24T06:27:54;101001.50;;;21.34;60.68
37238;BME280;23129;49.662;8.448;2022-07-24T06:30:26;101000.28;;;21.40;60.71
37238;BME280;23129;49.662;8.448;2022-07-24T06:32:57;101007.97;;;21.45;60.46
37238;BME280;23129;49.662;8.448;2022-07-24T06:35:27;100996.16;;;21.49;60.46
37238;BME280;23129;49.662;8.448;2022-07-24T06:38:00;101001.00;;;21.56;60.35
37238;BME280;23129;49.662;8.448;2022-07-24T06:40:28;100997.00;;;21.63;60.26
37238;BME280;23129;49.662;8.448;2022-07-24T06:42:57;101000.00;;;21.72;60.21
37238;BME280;23129;49.662;8.448;2022-07-24T06:45:25;100987.00;;;21.80;59.97
37238;BME280;23129;49.662;8.448;2022-07-24T06:47:55;100989.16;;;21.87;59.75
37238;BME280;23129;49.662;8.448;2022-07-24T06:50:23;100990.47;;;21.95;59.67
37238;BME280;23129;49.662;8.448;2022-07-24T06:52:52;100981.31;;;21.99;59.71
37238;BME280;23129;49.662;8.448;2022-07-24T06:55:20;100987.94;;;22.06;59.51
37238;BME280;23129;49.662;8.448;2022-07-24T06:57:49;100990.94;;;22.14;59.19
37238;BME280;23129;49.662;8.448;2022-07-24T07:00:17;100981.56;;;22.21;59.14
37238;BME280;23129;49.662;8.448;2022-07-24T07:02:46;100981.78;;;22.31;58.92
37238;BME280;23129;49.662;8.448;2022-07-24T07:05:15;100984.81;;;22.39;58.45
37238;BME280;23129;49.662;8.448;2022-07-24T07:07:45;100978.06;;;22.46;58.35
37238;BME280;23129;49.662;8.448;2022-07-24T07:10:14;100986.31;;;22.56;58.18
37238;BME280;23129;49.662;8.448;2022-07-24T07:12:42;100985.69;;;22.65;57.99
37238;BME280;23129;49.662;8.448;2022-07-24T07:15:11;100979.69;;;22.74;57.99
37238;BME280;23129;49.662;8.448;2022-07-24T07:17:41;100973.69;;;22.84;57.72
37238;BME280;23129;49.662;8.448;2022-07-24T07:20:11;100984.72;;;22.92;57.57
37238;BME280;23129;49.662;8.448;2022-07-24T07:22:42;100976.91;;;23.01;57.23
37238;BME280;23129;49.662;8.448;2022-07-24T07:25:11;100968.09;;;23.12;56.99
37238;BME280;23129;49.662;8.448;2022-07-24T07:27:39;100972.81;;;23.21;56.89
37238;BME280;23129;49.662;8.448;2022-07-24T07:30:08;100968.47;;;23.32;56.49
37238;BME280;23129;49.662;8.448;2022-07-24T07:32:39;100975.50;;;23.45;56.46
37238;BME280;23129;49.662;8.448;2022-07-24T07:35:08;100967.19;;;23.61;56.07
37238;BME280;23129;49.662;8.448;2022-07-24T07:37:50;100971.94;;;23.82;55.47
37238;BME280;23129;49.662;8.448;2022-07-24T07:40:18;100967.66;;;24.03;55.25
37238;BME280;23129;49.662;8.448;2022-07-24T07:42:47;100963.91;;;24.28;54.48
37238;BME280;23129;49.662;8.448;2022-07-24T07:45:16;100968.03;;;24.56;54.27
37238;BME280;23129;49.662;8.448;2022-07-24T07:47:44;100962.44;;;24.82;53.79
37238;BME280;23129;49.662;8.448;2022-07-24T07:50:13;100972.94;;;25.08;53.37
37238;BME280;23129;49.662;8.448;2022-07-24T07:52:41;100974.63;;;25.31;52.60
37238;BME280;23129;49.662;8.448;2022-07-24T07:55:12;100969.19;;;25.54;52.18
37238;BME280;23129;49.662;8.448;2022-07-24T07:57:41;100964.72;;;25.75;52.09
37238;BME280;23129;49.662;8.448;2022-07-24T08:00:30;100969.38;;;26.05;51.28
37238;BME280;23129;49.662;8.448;2022-07-24T08:02:59;100968.69;;;26.24;50.70
37238;BME280;23129;49.662;8.448;2022-07-24T08:05:28;100971.63;;;26.42;50.22
37238;BME280;23129;49.662;8.448;2022-07-24T08:07:56;100973.13;;;26.56;49.94
37238;BME280;23129;49.662;8.448;2022-07-24T08:10:26;100972.69;;;26.72;49.63
37238;BME280;23129;49.662;8.448;2022-07-24T08:12:55;100971.06;;;26.90;49.14
37238;BME280;23129;49.662;8.448;2022-07-24T08:15:23;100973.94;;;27.08;48.59
37238;BME280;23129;49.662;8.448;2022-07-24T08:17:52;100967.34;;;27.22;48.63
37238;BME280;23129;49.662;8.448;2022-07-24T08:20:21;100972.22;;;27.38;47.98
37238;BME280;23129;49.662;8.448;2022-07-24T08:22:50;100973.78;;;27.50;47.56
37238;BME280;23129;49.662;8.448;2022-07-24T08:25:19;100959.91;;;27.64;47.35
37238;BME280;23129;49.662;8.448;2022-07-24T08:27:48;100961.63;;;27.85;46.76
37238;BME280;23129;49.662;8.448;2022-07-24T08:30:17;100968.72;;;28.05;46.41
37238;BME280;23129;49.662;8.448;2022-07-24T08:32:46;100966.69;;;28.27;46.02
37238;BME280;23129;49.662;8.448;2022-07-24T08:35:14;100965.00;;;28.45;45.70
37238;BME280;23129;49.662;8.448;2022-07-24T08:37:43;100969.25;;;28.57;45.31
37238;BME280;23129;49.662;8.448;2022-07-24T08:40:13;100964.34;;;28.71;45.03
37238;BME280;23129;49.662;8.448;2022-07-24T08:42:41;100970.28;;;28.84;44.63
37238;BME280;23129;49.662;8.448;2022-07-24T08:45:11;100962.50;;;28.99;44.29
37238;BME280;23129;49.662;8.448;2022-07-24T08:47:40;100957.19;;;29.17;43.97
37238;BME280;23129;49.662;8.448;2022-07-24T08:50:09;100953.00;;;29.32;43.27
37238;BME280;23129;49.662;8.448;2022-07-24T08:52:38;100945.81;;;29.41;42.91
37238;BME280;23129;49.662;8.448;2022-07-24T08:55:12;100952.22;;;29.57;42.70
37238;BME280;23129;49.662;8.448;2022-07-24T08:57:40;100954.44;;;29.72;42.87
37238;BME280;23129;49.662;8.448;2022-07-24T09:00:12;100957.44;;;29.87;42.50
37238;BME280;23129;49.662;8.448;2022-07-24T09:02:41;100950.78;;;29.99;41.79
37238;BME280;23129;49.662;8.448;2022-07-24T09:05:09;100956.25;;;30.25;41.67
37238;BME280;23129;49.662;8.448;2022-07-24T09:07:38;100945.97;;;30.63;40.83
37238;BME280;23129;49.662;8.448;2022-07-24T09:10:09;100945.88;;;31.07;40.34
37238;BME280;23129;49.662;8.448;2022-07-24T09:12:39;100950.25;;;31.42;39.34
37238;BME280;23129;49.662;8.448;2022-07-24T09:15:16;100942.47;;;31.64;39.32
37238;BME280;23129;49.662;8.448;2022-07-24T09:17:51;100937.91;;;31.80;38.96
37238;BME280;23129;49.662;8.448;2022-07-24T09:20:23;100941.50;;;32.05;38.38
37238;BME280;23129;49.662;8.448;2022-07-24T09:22:51;100943.66;;;32.43;37.52
37238;BME280;23129;49.662;8.448;2022-07-24T09:25:22;100932.34;;;32.79;37.15
37238;BME280;23129;49.662;8.448;2022-07-24T09:27:53;100932.56;;;33.08;36.71
37238;BME280;23129;49.662;8.448;2022-07-24T09:30:29;100924.81;;;33.28;36.39
37238;BME280;23129;49.662;8.448;2022-07-24T09:33:01;100933.25;;;33.64;35.60
37238;BME280;23129;49.662;8.448;2022-07-24T09:35:32;100935.53;;;33.99;35.11
37238;BME280;23129;49.662;8.448;2022-07-24T09:38:02;100925.72;;;34.13;34.83
37238;BME280;23129;49.662;8.448;2022-07-24T09:40:34;100931.00;;;34.29;34.58
37238;BME280;23129;49.662;8.448;2022-07-24T09:43:28;100930.56;;;34.55;34.27
37238;BME280;23129;49.662;8.448;2022-07-24T09:46:05;100918.44;;;34.72;33.90
37238;BME280;23129;49.662;8.448;2022-07-24T09:48:37;100924.22;;;34.99;33.70
37238;BME280;23129;49.662;8.448;2022-07-24T09:51:12;100918.16;;;35.33;33.01
37238;BME280;23129;49.662;8.448;2022-07-24T09:53:43;100922.84;;;35.39;33.01
37238;BME280;23129;49.662;8.448;2022-07-24T09:56:13;100918.94;;;35.49;32.94
37238;BME280;23129;49.662;8.448;2022-07-24T09:58:50;100917.34;;;35.54;32.76
37238;BME280;23129;49.662;8.448;2022-07-24T10:01:24;100921.97;;;35.75;32.67
37238;BME280;23129;49.662;8.448;2022-07-24T10:03:55;100914.25;;;35.85;32.83
37238;BME280;23129;49.662;8.448;2022-07-24T10:06:26;100911.22;;;36.02;32.50
37238;BME280;23129;49.662;8.448;2022-07-24T10:08:55;100914.09;;;36.15;32.05
37238;BME280;23129;49.662;8.448;2022-07-24T10:11:24;100909.78;;;36.27;31.66
37238;BME280;23129;49.662;8.448;2022-07-24T10:13:53;100910.56;;;36.21;31.54
37238;BME280;23129;49.662;8.448;2022-07-24T10:16:32;100906.31;;;36.12;31.80
37238;BME280;23129;49.662;8.448;2022-07-24T10:19:05;100919.97;;;36.12;31.33
37238;BME280;23129;49.662;8.448;2022-07-24T10:21:36;100905.13;;;36.00;31.70
37238;BME280;23129;49.662;8.448;2022-07-24T10:24:49;100914.66;;;36.04;31.55
37238;BME280;23129;49.662;8.448;2022-07-24T10:27:28;100906.88;;;36.36;31.04
37238;BME280;23129;49.662;8.448;2022-07-24T10:30:00;100897.41;;;36.73;30.52
37238;BME280;23129;49.662;8.448;2022-07-24T10:32:32;100896.31;;;37.02;30.13
37238;BME280;23129;49.662;8.448;2022-07-24T10:35:11;100899.31;;;37.27;30.56
37238;BME280;23129;49.662;8.448;2022-07-24T10:37:52;100892.16;;;37.26;30.13
37238;BME280;23129;49.662;8.448;2022-07-24T10:40:28;100889.47;;;36.85;30.45
37238;BME280;23129;49.662;8.448;2022-07-24T10:43:13;100885.34;;;36.54;30.52
37238;BME280;23129;49.662;8.448;2022-07-24T10:45:43;100882.34;;;36.49;31.22
37238;BME280;23129;49.662;8.448;2022-07-24T10:48:29;100874.72;;;36.72;30.48
37238;BME280;23129;49.662;8.448;2022-07-24T10:51:03;100873.94;;;36.92;30.21
37238;BME280;23129;49.662;8.448;2022-07-24T10:53:48;100872.34;;;37.17;30.02
37238;BME280;23129;49.662;8.448;2022-07-24T10:56:28;100867.75;;;37.38;29.33
37238;BME280;23129;49.662;8.448;2022-07-24T10:59:11;100868.84;;;37.77;29.43
37238;BME280;23129;49.662;8.448;2022-07-24T11:01:42;100861.47;;;37.90;28.98
37238;BME280;23129;49.662;8.448;2022-07-24T11:04:28;100855.94;;;38.24;28.69
37238;BME280;23129;49.662;8.448;2022-07-24T11:07:08;100856.72;;;38.44;28.22
37238;BME280;23129;49.662;8.448;2022-07-24T11:09:56;100858.88;;;38.42;28.32
37238;BME280;23129;49.662;8.448;2022-07-24T11:12:28;100858.00;;;38.48;28.05
37238;BME280;23129;49.662;8.448;2022-07-24T11:15:04;100855.34;;;38.87;27.87
37238;BME280;23129;49.662;8.448;2022-07-24T11:17:51;100854.06;;;38.89;27.55
37238;BME280;23129;49.662;8.448;2022-07-24T11:20:22;100859.31;;;38.84;27.55
37238;BME280;23129;49.662;8.448;2022-07-24T11:22:52;100856.19;;;38.74;27.37
37238;BME280;23129;49.662;8.448;2022-07-24T11:25:24;100850.97;;;38.59;27.42
37238;BME280;23129;49.662;8.448;2022-07-24T11:27:56;100841.53;;;38.55;27.83
37238;BME280;23129;49.662;8.448;2022-07-24T11:30:28;100841.25;;;38.70;27.63
37238;BME280;23129;49.662;8.448;2022-07-24T11:32:58;100835.44;;;38.91;27.03
37238;BME280;23129;49.662;8.448;2022-07-24T11:35:31;100825.75;;;38.95;27.22
37238;BME280;23129;49.662;8.448;2022-07-24T11:38:03;100823.66;;;38.84;27.43
37238;BME280;23129;49.662;8.448;2022-07-24T11:40:33;100831.69;;;38.79;27.17
37238;BME280;23129;49.662;8.448;2022-07-24T11:43:04;100830.84;;;38.85;26.96
37238;BME280;23129;49.662;8.448;2022-07-24T11:45:38;100827.88;;;38.80;26.67
37238;BME280;23129;49.662;8.448;2022-07-24T11:48:06;100829.72;;;38.54;26.74
37238;BME280;23129;49.662;8.448;2022-07-24T11:50:36;100815.41;;;38.46;26.88
37238;BME280;23129;49.662;8.448;2022-07-24T11:53:06;100803.47;;;38.72;26.86
37238;BME280;23129;49.662;8.448;2022-07-24T11:55:35;100808.47;;;38.88;26.04
37238;BME280;23129;49.662;8.448;2022-07-24T11:58:04;100800.88;;;38.77;25.93
37238;BME280;23129;49.662;8.448;2022-07-24T12:00:53;100793.38;;;38.66;25.96
37238;BME280;23129;49.662;8.448;2022-07-24T12:03:24;100796.72;;;38.68;25.45
37238;BME280;23129;49.662;8.448;2022-07-24T12:05:54;100793.72;;;38.76;25.37
37238;BME280;23129;49.662;8.448;2022-07-24T12:08:23;100794.22;;;39.04;25.06
37238;BME280;23129;49.662;8.448;2022-07-24T12:10:55;100782.72;;;38.82;25.16
37238;BME280;23129;49.662;8.448;2022-07-24T12:13:24;100778.94;;;38.45;25.37
37238;BME280;23129;49.662;8.448;2022-07-24T12:15:52;100771.44;;;38.14;24.98
37238;BME280;23129;49.662;8.448;2022-07-24T12:18:21;100772.84;;;38.30;25.17
37238;BME280;23129;49.662;8.448;2022-07-24T12:20:59;100760.63;;;38.39;24.71
37238;BME280;23129;49.662;8.448;2022-07-24T12:23:28;100763.16;;;38.27;24.50
37238;BME280;23129;49.662;8.448;2022-07-24T12:25:57;100746.06;;;38.32;24.51
37238;BME280;23129;49.662;8.448;2022-07-24T12:28:27;100754.44;;;38.50;24.33
37238;BME280;23129;49.662;8.448;2022-07-24T12:30:56;100754.88;;;38.47;23.98
37238;BME280;23129;49.662;8.448;2022-07-24T12:33:26;100752.16;;;38.47;23.80
37238;BME280;23129;49.662;8.448;2022-07-24T12:36:00;100750.06;;;38.36;24.19
37238;BME280;23129;49.662;8.448;2022-07-24T12:38:37;100747.09;;;38.37;23.73
37238;BME280;23129;49.662;8.448;2022-07-24T12:41:08;100739.47;;;38.46;23.47
37238;BME280;23129;49.662;8.448;2022-07-24T12:43:47;100749.13;;;38.55;23.45
37238;BME280;23129;49.662;8.448;2022-07-24T12:46:18;100745.41;;;38.36;22.75
37238;BME280;23129;49.662;8.448;2022-07-24T12:49:00;100743.31;;;38.32;22.80
37238;BME280;23129;49.662;8.448;2022-07-24T12:54:24;100737.81;;;38.32;22.58
37238;BME280;23129;49.662;8.448;2022-07-24T12:56:55;100749.94;;;38.63;22.69
37238;BME280;23129;49.662;8.448;2022-07-24T12:59:27;100733.19;;;38.39;22.63
37238;BME280;23129;49.662;8.448;2022-07-24T13:01:58;100736.59;;;38.28;22.91
37238;BME280;23129;49.662;8.448;2022-07-24T13:04:27;100726.50;;;38.22;23.28
37238;BME280;23129;49.662;8.448;2022-07-24T13:06:57;100732.75;;;38.42;23.00
37238;BME280;23129;49.662;8.448;2022-07-24T13:09:28;100724.78;;;38.72;22.54